Time;durP1;ratioP1;P1;durP2;ratioP2;P2;SDS_P1;SDS_P2;PMS_P1;PMS_P2;Temp;Humidity;BMP_temperature;BMP_pressure;BME280_temperature;BME280_humidity;BME280_pressure;Samples;Min_cycle;Max_cycle;Signal;HPM_P1;HPM_P2
2021/01/16 00:02:44;;;;;;;17.47;10.47;;;;;;;;;;4995732;28;20681;-72
2021/01/16 00:05:49;;;;;;;14.43;10.10;;;;;;;;;;4996464;28;20553;-73
2021/01/16 00:08:57;;;;;;;17.20;10.20;;;;;;;;;;5013915;28;20591;-72
2021/01/16 00:12:02;;;;;;;14.17;9.43;;;;;;;;;;5011527;28;20650;-72
2021/01/16 00:15:07;;;;;;;16.37;10.47;;;;;;;;;;4996038;28;20537;-72
2021/01/16 00:18:16;;;;;;;15.67;10.20;;;;;;;;;;4996225;28;20541;-72
2021/01/16 00:21:21;;;;;;;16.83;10.63;;;;;;;;;;4997206;28;20656;-73
2021/01/16 00:24:25;;;;;;;14.97;10.20;;;;;;;;;;4996355;28;20557;-72
2021/01/16 00:27:29;;;;;;;17.97;11.37;;;;;;;;;;4995992;28;20592;-72
2021/01/16 00:30:34;;;;;;;15.40;9.87;;;;;;;;;;5006111;28;20556;-72
2021/01/16 00:33:38;;;;;;;13.67;9.00;;;;;;;;;;4995663;28;20605;-72
2021/01/16 00:36:42;;;;;;;14.07;9.60;;;;;;;;;;4975104;28;20614;-72
2021/01/16 00:39:47;;;;;;;16.20;10.03;;;;;;;;;;5008270;28;20592;-73
2021/01/16 00:42:54;;;;;;;17.40;11.03;;;;;;;;;;5015186;28;20551;-73
2021/01/16 00:45:58;;;;;;;17.43;10.67;;;;;;;;;;5003154;28;20556;-73
2021/01/16 00:49:02;;;;;;;16.67;10.77;;;;;;;;;;5003592;28;20584;-73
2021/01/16 00:52:07;;;;;;;23.93;11.00;;;;;;;;;;4994546;28;20636;-72
2021/01/16 00:55:12;;;;;;;18.50;11.40;;;;;;;;;;4994709;28;20557;-73
2021/01/16 00:58:19;;;;;;;19.47;11.10;;;;;;;;;;4994563;28;20596;-72
2021/01/16 01:01:26;;;;;;;19.00;10.73;;;;;;;;;;4995433;28;20987;-73
2021/01/16 01:04:30;;;;;;;15.87;10.40;;;;;;;;;;4994219;28;20581;-72
2021/01/16 01:07:34;;;;;;;19.63;11.67;;;;;;;;;;4966508;28;21254;-73
2021/01/16 01:10:41;;;;;;;17.63;10.57;;;;;;;;;;4976061;28;20641;-73
2021/01/16 01:13:50;;;;;;;19.27;11.70;;;;;;;;;;4994900;28;20612;-73
2021/01/16 01:16:54;;;;;;;18.67;10.83;;;;;;;;;;4994066;28;20612;-73
2021/01/16 01:19:58;;;;;;;18.60;11.07;;;;;;;;;;4994833;28;20545;-73
2021/01/16 01:23:03;;;;;;;18.97;11.40;;;;;;;;;;5012829;28;20584;-73
2021/01/16 01:26:06;;;;;;;20.03;11.33;;;;;;;;;;5013784;28;21097;-73
2021/01/16 01:29:11;;;;;;;21.20;12.80;;;;;;;;;;5014092;28;20643;-73
2021/01/16 01:32:15;;;;;;;17.83;11.63;;;;;;;;;;5003230;28;20648;-73
2021/01/16 01:35:20;;;;;;;17.40;11.00;;;;;;;;;;5006977;28;20592;-73
2021/01/16 01:38:24;;;;;;;20.93;11.87;;;;;;;;;;4975322;28;20538;-73
2021/01/16 01:41:28;;;;;;;20.37;11.77;;;;;;;;;;4981038;28;20656;-73
2021/01/16 01:44:33;;;;;;;20.03;11.50;;;;;;;;;;4994445;28;20600;-72
2021/01/16 01:47:39;;;;;;;19.00;11.67;;;;;;;;;;4991717;28;20651;-73
2021/01/16 01:50:44;;;;;;;20.43;12.27;;;;;;;;;;4974741;28;21016;-73
2021/01/16 01:53:50;;;;;;;20.37;12.43;;;;;;;;;;4975062;28;20613;-72
2021/01/16 01:56:54;;;;;;;19.67;12.17;;;;;;;;;;4975326;28;20554;-72
2021/01/16 02:00:02;;;;;;;22.13;12.87;;;;;;;;;;4989873;28;20601;-73
2021/01/16 02:03:23;;;;;;;19.23;10.83;;;;;;;;;;5011701;28;20599;-72
2021/01/16 02:06:27;;;;;;;21.23;12.57;;;;;;;;;;5012889;28;20608;-73
2021/01/16 02:09:31;;;;;;;19.33;12.67;;;;;;;;;;5024133;28;20536;-72
2021/01/16 02:12:40;;;;;;;20.57;12.77;;;;;;;;;;5013461;28;20639;-72
2021/01/16 02:15:48;;;;;;;20.80;12.53;;;;;;;;;;5005420;28;20601;-72
2021/01/16 02:18:56;;;;;;;18.77;12.27;;;;;;;;;;4994130;28;21123;-72
2021/01/16 02:22:01;;;;;;;24.60;12.53;;;;;;;;;;4992948;28;20643;-72
2021/01/16 02:25:12;;;;;;;18.70;11.80;;;;;;;;;;4994053;28;21192;-72
2021/01/16 02:28:28;;;;;;;19.77;12.10;;;;;;;;;;4997964;28;20654;-72
2021/01/16 02:31:38;;;;;;;19.50;12.23;;;;;;;;;;5013250;28;20632;-72
2021/01/16 02:34:46;;;;;;;21.17;13.10;;;;;;;;;;4996750;28;20596;-72
2021/01/16 02:38:07;;;;;;;22.57;13.20;;;;;;;;;;4992852;28;20553;-72
2021/01/16 02:41:31;;;;;;;23.80;12.83;;;;;;;;;;4984204;28;20655;-72
2021/01/16 02:44:38;;;;;;;23.97;12.83;;;;;;;;;;5011474;28;20608;-72
2021/01/16 02:48:07;;;;;;;21.73;12.60;;;;;;;;;;5013676;28;20596;-72
2021/01/16 02:51:14;;;;;;;21.33;12.50;;;;;;;;;;5012502;28;20636;-72
2021/01/16 02:54:22;;;;;;;22.57;12.73;;;;;;;;;;5023185;28;21137;-72
2021/01/16 02:57:26;;;;;;;21.63;12.87;;;;;;;;;;4993015;28;20553;-72
2021/01/16 03:00:30;;;;;;;21.37;12.47;;;;;;;;;;4996760;28;20976;-72
2021/01/16 03:03:38;;;;;;;21.47;13.30;;;;;;;;;;4997371;28;20608;-72
2021/01/16 03:06:50;;;;;;;20.27;12.43;;;;;;;;;;4996636;28;20619;-72
2021/01/16 03:09:56;;;;;;;22.53;13.30;;;;;;;;;;5015792;28;20576;-72
2021/01/16 03:13:01;;;;;;;20.77;13.30;;;;;;;;;;5017054;28;21090;-72
2021/01/16 03:16:12;;;;;;;21.87;13.50;;;;;;;;;;5016583;28;20579;-72
2021/01/16 03:19:23;;;;;;;25.13;13.77;;;;;;;;;;5016960;28;20568;-72
2021/01/16 03:22:28;;;;;;;21.93;13.50;;;;;;;;;;5005871;28;20656;-72
2021/01/16 03:25:33;;;;;;;23.13;13.60;;;;;;;;;;4997133;28;20580;-72
2021/01/16 03:28:37;;;;;;;23.03;14.23;;;;;;;;;;4996895;28;20636;-72
2021/01/16 03:31:41;;;;;;;22.93;13.67;;;;;;;;;;5002856;28;20654;-72
2021/01/16 03:34:47;;;;;;;23.73;14.07;;;;;;;;;;5016689;28;20543;-72
2021/01/16 03:37:55;;;;;;;21.93;13.30;;;;;;;;;;5015250;28;21176;-72
2021/01/16 03:40:59;;;;;;;26.10;15.27;;;;;;;;;;5016327;28;20631;-72
2021/01/16 03:44:04;;;;;;;25.40;14.73;;;;;;;;;;5013209;28;20600;-72
2021/01/16 03:47:08;;;;;;;24.00;13.87;;;;;;;;;;4976980;28;21198;-72
2021/01/16 03:50:12;;;;;;;27.07;14.93;;;;;;;;;;4977339;28;20546;-72
2021/01/16 03:53:16;;;;;;;25.50;13.87;;;;;;;;;;4977299;28;20553;-72
2021/01/16 03:56:20;;;;;;;23.50;13.47;;;;;;;;;;4976936;28;20562;-72
2021/01/16 03:59:25;;;;;;;24.17;14.63;;;;;;;;;;5011064;28;20607;-71
2021/01/16 04:02:29;;;;;;;26.10;14.97;;;;;;;;;;5015452;28;21209;-72
2021/01/16 04:05:33;;;;;;;25.70;14.90;;;;;;;;;;5005289;28;20596;-72
2021/01/16 04:08:37;;;;;;;24.80;14.10;;;;;;;;;;4995991;28;20660;-72
2021/01/16 04:11:41;;;;;;;25.80;15.37;;;;;;;;;;4995080;28;20637;-72
2021/01/16 04:14:45;;;;;;;25.00;14.87;;;;;;;;;;4996346;28;20552;-72
2021/01/16 04:17:51;;;;;;;28.33;15.10;;;;;;;;;;4996257;28;20557;-72
2021/01/16 04:20:56;;;;;;;27.67;16.30;;;;;;;;;;4976999;28;21206;-72
2021/01/16 04:24:00;;;;;;;26.23;14.87;;;;;;;;;;4989866;28;20623;-72
2021/01/16 04:27:04;;;;;;;26.83;13.93;;;;;;;;;;5014857;28;20603;-72
2021/01/16 04:30:09;;;;;;;28.37;15.57;;;;;;;;;;5015275;28;20596;-72
2021/01/16 04:33:13;;;;;;;24.43;14.93;;;;;;;;;;5015586;28;20544;-72
2021/01/16 04:36:17;;;;;;;26.50;15.07;;;;;;;;;;5015814;28;21118;-72
2021/01/16 04:39:22;;;;;;;27.87;15.53;;;;;;;;;;5015003;28;20983;-72
2021/01/16 04:42:26;;;;;;;26.80;15.33;;;;;;;;;;5015349;28;20626;-72
2021/01/16 04:45:34;;;;;;;29.37;16.10;;;;;;;;;;5002712;28;20600;-72
2021/01/16 04:48:41;;;;;;;25.23;15.87;;;;;;;;;;4995404;28;20596;-72
2021/01/16 04:51:47;;;;;;;26.77;16.57;;;;;;;;;;5001284;28;20659;-72
2021/01/16 04:54:54;;;;;;;27.83;16.10;;;;;;;;;;5005286;28;21186;-72
2021/01/16 04:58:10;;;;;;;30.73;16.30;;;;;;;;;;4995287;28;20975;-72
2021/01/16 05:01:19;;;;;;;26.63;15.40;;;;;;;;;;4995306;28;21209;-72
2021/01/16 05:04:24;;;;;;;26.97;15.67;;;;;;;;;;4994650;28;20557;-72
2021/01/16 05:07:29;;;;;;;28.17;15.70;;;;;;;;;;5010656;22;20628;-72
2021/01/16 05:10:39;;;;;;;25.93;15.17;;;;;;;;;;5024085;28;20632;-71
2021/01/16 05:13:46;;;;;;;26.10;15.10;;;;;;;;;;5014905;28;20947;-71
2021/01/16 05:17:00;;;;;;;23.37;14.67;;;;;;;;;;5014571;28;20567;-71
2021/01/16 05:20:07;;;;;;;25.13;14.87;;;;;;;;;;5013356;28;20623;-71
2021/01/16 05:23:12;;;;;;;25.90;14.57;;;;;;;;;;5013557;28;20603;-71
2021/01/16 05:26:17;;;;;;;24.67;14.27;;;;;;;;;;5014161;28;20595;-71
2021/01/16 05:29:23;;;;;;;23.57;14.10;;;;;;;;;;5013026;28;20782;-71
2021/01/16 05:32:29;;;;;;;24.93;14.53;;;;;;;;;;5006955;28;20659;-72
2021/01/16 05:35:34;;;;;;;25.30;15.33;;;;;;;;;;5014463;28;20556;-72
2021/01/16 05:38:40;;;;;;;23.77;14.00;;;;;;;;;;5014384;28;20556;-72
2021/01/16 05:41:46;;;;;;;23.50;14.53;;;;;;;;;;5014105;28;20655;-72
2021/01/16 05:44:51;;;;;;;22.63;13.73;;;;;;;;;;5014385;28;20603;-72
2021/01/16 05:47:55;;;;;;;24.93;14.07;;;;;;;;;;5014228;28;20568;-72
2021/01/16 05:51:01;;;;;;;23.73;13.57;;;;;;;;;;5013114;28;21007;-72
2021/01/16 05:54:06;;;;;;;25.53;14.80;;;;;;;;;;5014145;28;20560;-72
2021/01/16 05:57:16;;;;;;;26.57;14.53;;;;;;;;;;5013260;28;20616;-72
2021/01/16 06:00:24;;;;;;;23.87;13.53;;;;;;;;;;5013680;28;20619;-72
2021/01/16 06:03:31;;;;;;;22.83;13.83;;;;;;;;;;5001646;28;20611;-72
2021/01/16 06:06:36;;;;;;;26.93;14.53;;;;;;;;;;5012851;28;20611;-72
2021/01/16 06:09:42;;;;;;;23.63;13.70;;;;;;;;;;5012489;28;20663;-72
2021/01/16 06:12:48;;;;;;;20.50;12.60;;;;;;;;;;5013555;28;20556;-72
2021/01/16 06:15:54;;;;;;;22.13;12.70;;;;;;;;;;5013507;28;21215;-72
2021/01/16 06:19:02;;;;;;;23.17;12.43;;;;;;;;;;5013590;28;20588;-72
2021/01/16 06:22:11;;;;;;;21.37;13.17;;;;;;;;;;5013421;28;20655;-72
2021/01/16 06:25:19;;;;;;;18.87;11.83;;;;;;;;;;5013413;28;20599;-72
2021/01/16 06:28:28;;;;;;;22.67;12.10;;;;;;;;;;5012755;28;20994;-72
2021/01/16 06:31:34;;;;;;;17.93;11.70;;;;;;;;;;5013484;28;21289;-72
2021/01/16 06:34:40;;;;;;;20.63;12.53;;;;;;;;;;5012189;28;20611;-72
2021/01/16 06:37:49;;;;;;;20.13;11.60;;;;;;;;;;5012767;28;20904;-72
2021/01/16 06:40:54;;;;;;;18.33;11.57;;;;;;;;;;5013084;28;20647;-72
2021/01/16 06:43:59;;;;;;;17.73;11.20;;;;;;;;;;5013407;28;20557;-72
2021/01/16 06:47:04;;;;;;;20.57;12.00;;;;;;;;;;5012921;28;20951;-72
2021/01/16 06:50:09;;;;;;;19.33;11.53;;;;;;;;;;5012613;28;21153;-72
2021/01/16 06:53:25;;;;;;;21.63;11.97;;;;;;;;;;5012998;28;20943;-72
2021/01/16 06:56:32;;;;;;;21.30;11.10;;;;;;;;;;5012075;28;20627;-72
2021/01/16 06:59:38;;;;;;;21.33;11.43;;;;;;;;;;5013579;28;20611;-72
2021/01/16 07:02:47;;;;;;;20.67;10.70;;;;;;;;;;5012993;28;20631;-72
2021/01/16 07:05:55;;;;;;;18.27;10.97;;;;;;;;;;5013370;28;20552;-72
2021/01/16 07:08:59;;;;;;;17.03;11.00;;;;;;;;;;5012968;28;20623;-72
2021/01/16 07:12:03;;;;;;;15.53;9.80;;;;;;;;;;5013027;28;20631;-72
2021/01/16 07:15:09;;;;;;;17.03;10.27;;;;;;;;;;5012137;28;21170;-72
2021/01/16 07:18:13;;;;;;;17.87;10.47;;;;;;;;;;5012890;28;20615;-72
2021/01/16 07:21:19;;;;;;;17.40;11.00;;;;;;;;;;5012212;28;20630;-72
2021/01/16 07:24:23;;;;;;;16.33;10.93;;;;;;;;;;5013128;28;20899;-72
2021/01/16 07:27:28;;;;;;;18.70;10.93;;;;;;;;;;5012517;28;21174;-72
2021/01/16 07:30:33;;;;;;;19.27;10.70;;;;;;;;;;5012481;28;20635;-73
2021/01/16 07:33:39;;;;;;;18.53;11.73;;;;;;;;;;5012149;28;20596;-73
2021/01/16 07:36:44;;;;;;;20.57;12.53;;;;;;;;;;4999198;28;20947;-72
2021/01/16 07:39:49;;;;;;;19.40;11.60;;;;;;;;;;5012009;28;20616;-71
2021/01/16 07:42:58;;;;;;;20.03;14.10;;;;;;;;;;5012697;28;21118;-72
2021/01/16 07:46:14;;;;;;;18.27;11.23;;;;;;;;;;5013296;28;20600;-72
2021/01/16 07:49:30;;;;;;;17.00;9.87;;;;;;;;;;4995719;28;20644;-72
2021/01/16 07:52:34;;;;;;;19.17;11.60;;;;;;;;;;4995579;28;20640;-72
2021/01/16 07:55:38;;;;;;;17.83;11.10;;;;;;;;;;4996445;28;20548;-72
2021/01/16 07:58:51;;;;;;;17.50;11.53;;;;;;;;;;5008893;28;20951;-72
2021/01/16 08:02:17;;;;;;;16.77;10.67;;;;;;;;;;5015669;28;20647;-72
2021/01/16 08:05:26;;;;;;;15.90;10.33;;;;;;;;;;4995484;28;20549;-72
2021/01/16 08:08:54;;;;;;;19.90;12.60;;;;;;;;;;4995564;28;20656;-72
2021/01/16 08:12:00;;;;;;;18.90;10.60;;;;;;;;;;4995251;28;21226;-72
2021/01/16 08:15:05;;;;;;;19.83;11.73;;;;;;;;;;4999891;28;20604;-72
2021/01/16 08:18:12;;;;;;;20.70;14.37;;;;;;;;;;5015525;28;21156;-73
2021/01/16 08:21:20;;;;;;;24.77;16.33;;;;;;;;;;5015499;28;20639;-72
2021/01/16 08:24:28;;;;;;;32.97;21.27;;;;;;;;;;5014411;28;21172;-73
2021/01/16 08:27:37;;;;;;;22.00;13.40;;;;;;;;;;4995620;28;20548;-73
2021/01/16 08:30:41;;;;;;;26.43;16.23;;;;;;;;;;5006774;28;20671;-73
2021/01/16 08:33:46;;;;;;;18.03;10.87;;;;;;;;;;5014503;28;20631;-72
2021/01/16 08:37:06;;;;;;;14.60;9.57;;;;;;;;;;5015541;28;20535;-72
2021/01/16 08:40:10;;;;;;;16.07;10.00;;;;;;;;;;5014716;28;20581;-73
2021/01/16 08:43:27;;;;;;;17.73;11.37;;;;;;;;;;5015706;28;20555;-73
2021/01/16 08:46:36;;;;;;;16.53;9.80;;;;;;;;;;5014582;28;20568;-73
2021/01/16 08:49:40;;;;;;;14.87;9.27;;;;;;;;;;4994872;28;20608;-73
2021/01/16 08:52:44;;;;;;;14.33;9.40;;;;;;;;;;5003648;28;20620;-72
2021/01/16 08:55:48;;;;;;;14.20;9.40;;;;;;;;;;5014350;28;20595;-72
2021/01/16 08:58:52;;;;;;;14.30;8.50;;;;;;;;;;5014554;28;20620;-72
2021/01/16 09:02:10;;;;;;;14.47;8.47;;;;;;;;;;5014660;28;20999;-72
2021/01/16 09:05:24;;;;;;;14.43;9.13;;;;;;;;;;5015035;28;20545;-72
2021/01/16 09:08:28;;;;;;;13.00;8.43;;;;;;;;;;5014444;28;20632;-73
2021/01/16 09:11:32;;;;;;;14.03;8.33;;;;;;;;;;4994943;28;20645;-72
2021/01/16 09:14:39;;;;;;;13.13;8.70;;;;;;;;;;4997692;28;20541;-72
2021/01/16 09:18:02;;;;;;;20.77;14.70;;;;;;;;;;4982969;28;20545;-72
2021/01/16 09:21:06;;;;;;;19.97;13.10;;;;;;;;;;4997393;28;20609;-73
2021/01/16 09:24:23;;;;;;;17.97;11.00;;;;;;;;;;5013773;28;20552;-73
2021/01/16 09:27:29;;;;;;;18.53;10.77;;;;;;;;;;4995275;28;21081;-72
2021/01/16 09:30:33;;;;;;;12.73;7.90;;;;;;;;;;4994745;28;20626;-73
2021/01/16 09:33:43;;;;;;;13.00;8.20;;;;;;;;;;4994591;28;20542;-72
2021/01/16 09:36:48;;;;;;;10.80;6.97;;;;;;;;;;5001550;28;20589;-72
2021/01/16 09:40:10;;;;;;;11.10;7.40;;;;;;;;;;5012841;28;20948;-72
2021/01/16 09:43:21;;;;;;;14.93;9.80;;;;;;;;;;5014070;28;20549;-72
2021/01/16 09:46:36;;;;;;;14.17;11.30;;;;;;;;;;5014117;28;20589;-72
2021/01/16 09:49:44;;;;;;;12.87;9.57;;;;;;;;;;5013653;28;21190;-72
2021/01/16 09:52:50;;;;;;;12.83;7.50;;;;;;;;;;5013402;28;20885;-72
2021/01/16 09:55:56;;;;;;;14.47;8.67;;;;;;;;;;5014059;28;20600;-73
2021/01/16 09:59:02;;;;;;;13.50;9.07;;;;;;;;;;5013554;28;20624;-73
2021/01/16 10:02:25;;;;;;;13.77;9.33;;;;;;;;;;5013796;28;20616;-73
2021/01/16 10:05:40;;;;;;;12.33;8.60;;;;;;;;;;5013221;28;20537;-73
2021/01/16 10:08:49;;;;;;;11.20;7.43;;;;;;;;;;5011954;28;20640;-72
2021/01/16 10:11:53;;;;;;;11.90;7.73;;;;;;;;;;5013470;28;20660;-72
2021/01/16 10:15:01;;;;;;;11.57;7.73;;;;;;;;;;5013649;28;20553;-73
2021/01/16 10:18:05;;;;;;;16.93;11.00;;;;;;;;;;5013545;28;20600;-73
2021/01/16 10:21:11;;;;;;;28.33;17.83;;;;;;;;;;5013434;28;21213;-72
2021/01/16 10:24:18;;;;;;;19.00;12.93;;;;;;;;;;5013359;28;20597;-73
2021/01/16 10:27:49;;;;;;;12.97;9.10;;;;;;;;;;5012921;28;20785;-73
2021/01/16 10:31:02;;;;;;;15.77;10.53;;;;;;;;;;5013188;28;21008;-73
2021/01/16 10:34:12;;;;;;;15.10;10.00;;;;;;;;;;5013629;28;20564;-72
2021/01/16 10:37:18;;;;;;;13.27;9.33;;;;;;;;;;5011730;28;20613;-72
2021/01/16 10:40:23;;;;;;;20.70;11.97;;;;;;;;;;5013475;28;20545;-72
2021/01/16 10:43:32;;;;;;;18.93;11.47;;;;;;;;;;5013227;28;21137;-72
2021/01/16 10:46:45;;;;;;;13.60;9.43;;;;;;;;;;5012998;28;20588;-72
2021/01/16 10:49:49;;;;;;;14.13;9.30;;;;;;;;;;5013166;28;20596;-73
2021/01/16 10:53:05;;;;;;;12.43;8.27;;;;;;;;;;5012660;28;20534;-72
2021/01/16 10:56:24;;;;;;;13.77;10.57;;;;;;;;;;4993504;28;20593;-72
2021/01/16 10:59:30;;;;;;;18.10;14.20;;;;;;;;;;5010429;28;20948;-73
2021/01/16 11:02:36;;;;;;;15.47;11.00;;;;;;;;;;4994339;28;20624;-73
2021/01/16 11:05:48;;;;;;;13.37;8.93;;;;;;;;;;5012905;28;20589;-73
2021/01/16 11:08:53;;;;;;;13.40;9.30;;;;;;;;;;5029911;28;20635;-72
2021/01/16 11:12:02;;;;;;;10.93;7.90;;;;;;;;;;5024381;28;21012;-73
2021/01/16 11:15:19;;;;;;;13.23;9.50;;;;;;;;;;5012637;28;20584;-73
2021/01/16 11:18:31;;;;;;;9.43;5.93;;;;;;;;;;5012471;28;20537;-73
2021/01/16 11:21:36;;;;;;;13.83;8.63;;;;;;;;;;5015661;28;20620;-73
2021/01/16 11:24:50;;;;;;;10.83;7.67;;;;;;;;;;5022390;28;20924;-74
2021/01/16 11:28:08;;;;;;;13.37;7.63;;;;;;;;;;5019077;28;20564;-74
2021/01/16 11:31:33;;;;;;;10.27;7.30;;;;;;;;;;5006603;28;20664;-74
2021/01/16 11:35:07;;;;;;;13.70;9.30;;;;;;;;;;5017011;28;20545;-74
2021/01/16 11:38:46;;;;;;;12.50;8.07;;;;;;;;;;5009767;28;21138;-74
2021/01/16 11:41:52;;;;;;;12.90;7.40;;;;;;;;;;4984711;28;20609;-75
2021/01/16 11:45:01;;;;;;;13.23;7.53;;;;;;;;;;5015230;28;20576;-75
2021/01/16 11:48:06;;;;;;;13.70;8.77;;;;;;;;;;5006774;28;20589;-75
2021/01/16 11:51:16;;;;;;;11.17;6.83;;;;;;;;;;5013785;28;20660;-75
2021/01/16 11:54:27;;;;;;;19.67;8.57;;;;;;;;;;5015701;28;20572;-75
2021/01/16 11:57:32;;;;;;;10.97;6.30;;;;;;;;;;5016325;28;20541;-75
2021/01/16 12:00:36;;;;;;;9.13;6.33;;;;;;;;;;5011929;28;20584;-75
2021/01/16 12:03:42;;;;;;;13.40;8.13;;;;;;;;;;5006620;28;21145;-75
2021/01/16 12:06:47;;;;;;;12.27;7.97;;;;;;;;;;4997059;28;20534;-75
2021/01/16 12:09:53;;;;;;;11.90;6.93;;;;;;;;;;5003030;28;20580;-74
2021/01/16 12:12:57;;;;;;;9.60;6.17;;;;;;;;;;5013375;28;20608;-75
2021/01/16 12:16:01;;;;;;;10.53;6.57;;;;;;;;;;5014580;28;20620;-74
2021/01/16 12:19:12;;;;;;;13.20;8.03;;;;;;;;;;5015381;28;20619;-74
2021/01/16 12:22:20;;;;;;;12.60;7.83;;;;;;;;;;5014612;28;20987;-74
2021/01/16 12:25:32;;;;;;;13.37;8.70;;;;;;;;;;5014880;28;20929;-74
2021/01/16 12:28:39;;;;;;;12.17;8.67;;;;;;;;;;5014847;28;20616;-74
2021/01/16 12:31:44;;;;;;;12.27;8.10;;;;;;;;;;5019417;28;20651;-74
2021/01/16 12:34:51;;;;;;;11.57;8.50;;;;;;;;;;5035042;28;20603;-74
2021/01/16 12:37:55;;;;;;;12.37;8.13;;;;;;;;;;4998173;28;20620;-74
2021/01/16 12:41:00;;;;;;;18.73;11.20;;;;;;;;;;5011208;28;20644;-74
2021/01/16 12:44:04;;;;;;;17.90;10.90;;;;;;;;;;5014903;28;20620;-74
2021/01/16 12:47:15;;;;;;;36.60;15.33;;;;;;;;;;5014036;28;20599;-74
2021/01/16 12:50:24;;;;;;;46.57;18.70;;;;;;;;;;5013716;28;21169;-74
2021/01/16 12:53:29;;;;;;;25.00;12.57;;;;;;;;;;5014945;28;20580;-74
2021/01/16 12:56:35;;;;;;;16.10;10.13;;;;;;;;;;5015086;28;20561;-74
2021/01/16 12:59:39;;;;;;;19.20;12.30;;;;;;;;;;5014024;28;20592;-74
2021/01/16 13:02:47;;;;;;;14.87;9.90;;;;;;;;;;5014651;28;20584;-74
2021/01/16 13:05:52;;;;;;;13.30;9.60;;;;;;;;;;5014622;28;20597;-73
2021/01/16 13:08:57;;;;;;;13.37;8.63;;;;;;;;;;5015632;28;20616;-74
2021/01/16 13:12:01;;;;;;;12.77;8.17;;;;;;;;;;5013237;28;20672;-74
2021/01/16 13:15:06;;;;;;;12.80;9.43;;;;;;;;;;5015125;28;20537;-74
2021/01/16 13:18:18;;;;;;;12.63;9.00;;;;;;;;;;5010247;28;20592;-74
2021/01/16 13:21:28;;;;;;;14.27;9.30;;;;;;;;;;5008722;28;20628;-74
2021/01/16 13:24:34;;;;;;;12.67;8.10;;;;;;;;;;5034477;28;20548;-74
2021/01/16 13:27:39;;;;;;;15.77;8.80;;;;;;;;;;5020473;28;20584;-73
2021/01/16 13:30:47;;;;;;;13.23;8.60;;;;;;;;;;5009984;28;20643;-73
2021/01/16 13:33:57;;;;;;;15.27;8.57;;;;;;;;;;4995075;28;20601;-72
2021/01/16 13:37:02;;;;;;;13.00;8.10;;;;;;;;;;5029806;28;20575;-73
2021/01/16 13:40:12;;;;;;;15.93;10.03;;;;;;;;;;5034045;28;20892;-73
2021/01/16 13:43:17;;;;;;;13.07;9.37;;;;;;;;;;5026554;28;20585;-72
2021/01/16 13:46:36;;;;;;;14.13;9.77;;;;;;;;;;5012995;28;20584;-72
2021/01/16 13:49:40;;;;;;;17.17;9.50;;;;;;;;;;5013261;28;20917;-72
2021/01/16 13:52:55;;;;;;;76.07;37.67;;;;;;;;;;4997300;28;21206;-73
2021/01/16 13:55:59;;;;;;;29.90;17.97;;;;;;;;;;5013666;28;20886;-72
2021/01/16 13:59:03;;;;;;;17.43;12.20;;;;;;;;;;5014016;28;21075;-72
2021/01/16 14:02:12;;;;;;;18.07;12.63;;;;;;;;;;5013526;28;20616;-73
2021/01/16 14:05:27;;;;;;;20.93;14.17;;;;;;;;;;5013287;28;20604;-73
2021/01/16 14:08:32;;;;;;;21.43;14.23;;;;;;;;;;5013696;28;20624;-74
2021/01/16 14:11:40;;;;;;;26.37;15.30;;;;;;;;;;5012759;28;21158;-73
2021/01/16 14:14:51;;;;;;;58.03;29.37;;;;;;;;;;5012610;28;20829;-72
2021/01/16 14:17:56;;;;;;;21.60;14.30;;;;;;;;;;5013546;28;20553;-72
2021/01/16 14:21:11;;;;;;;17.37;12.07;;;;;;;;;;5013301;28;20973;-72
2021/01/16 14:24:16;;;;;;;18.97;10.87;;;;;;;;;;5012755;28;20557;-72
2021/01/16 14:27:23;;;;;;;17.27;10.37;;;;;;;;;;5013661;28;20545;-73
2021/01/16 14:30:30;;;;;;;15.63;9.63;;;;;;;;;;5013535;28;20549;-73
2021/01/16 14:33:34;;;;;;;17.97;11.13;;;;;;;;;;5013696;28;21283;-73
2021/01/16 14:36:39;;;;;;;17.03;11.17;;;;;;;;;;5012463;28;20606;-73
2021/01/16 14:39:43;;;;;;;21.67;15.70;;;;;;;;;;5012398;28;20611;-73
2021/01/16 14:42:57;;;;;;;18.80;12.83;;;;;;;;;;5012652;28;20544;-73
2021/01/16 14:46:02;;;;;;;19.60;11.50;;;;;;;;;;5013332;28;20583;-73
2021/01/16 14:49:09;;;;;;;17.37;10.80;;;;;;;;;;5013390;28;21165;-73
2021/01/16 14:52:15;;;;;;;20.37;12.53;;;;;;;;;;5013318;28;21228;-73
2021/01/16 14:55:19;;;;;;;20.80;13.20;;;;;;;;;;5014009;28;20557;-73
2021/01/16 14:58:23;;;;;;;22.77;13.03;;;;;;;;;;5016713;28;20544;-73
2021/01/16 15:01:47;;;;;;;19.10;12.00;;;;;;;;;;5016413;28;20623;-72
2021/01/16 15:04:51;;;;;;;20.20;12.23;;;;;;;;;;5016253;28;21095;-73
2021/01/16 15:08:10;;;;;;;22.33;14.63;;;;;;;;;;5015996;28;20615;-73
2021/01/16 15:11:16;;;;;;;22.53;16.10;;;;;;;;;;5016185;28;20651;-73
2021/01/16 15:14:48;;;;;;;23.03;14.23;;;;;;;;;;5016647;28;20532;-73
2021/01/16 15:18:06;;;;;;;28.63;17.63;;;;;;;;;;5016558;28;20551;-73
2021/01/16 15:21:10;;;;;;;53.00;37.47;;;;;;;;;;5016065;28;20646;-73
2021/01/16 15:24:15;;;;;;;23.20;15.47;;;;;;;;;;5016878;28;20555;-73
2021/01/16 15:27:19;;;;;;;25.93;17.20;;;;;;;;;;5016528;28;20603;-73
2021/01/16 15:30:28;;;;;;;25.63;16.90;;;;;;;;;;5015860;28;20959;-73
2021/01/16 15:33:49;;;;;;;26.40;17.10;;;;;;;;;;5016764;28;21158;-73
2021/01/16 15:37:01;;;;;;;27.00;16.87;;;;;;;;;;5016815;28;20552;-73
2021/01/16 15:40:06;;;;;;;25.03;14.17;;;;;;;;;;5016818;28;20551;-73
2021/01/16 15:43:09;;;;;;;25.47;14.90;;;;;;;;;;5027270;28;20548;-73
2021/01/16 15:46:16;;;;;;;23.20;14.83;;;;;;;;;;5015464;28;21173;-73
2021/01/16 15:49:27;;;;;;;25.23;15.20;;;;;;;;;;5004446;28;20547;-73
2021/01/16 15:52:31;;;;;;;23.83;13.77;;;;;;;;;;5016116;28;20658;-73
2021/01/16 15:55:36;;;;;;;26.53;16.10;;;;;;;;;;5015575;28;21172;-73
2021/01/16 15:58:40;;;;;;;26.03;16.20;;;;;;;;;;5015473;28;20556;-73
2021/01/16 16:01:45;;;;;;;23.30;14.50;;;;;;;;;;5016194;28;20627;-73
2021/01/16 16:04:49;;;;;;;25.10;15.47;;;;;;;;;;5015080;28;20544;-73
2021/01/16 16:07:54;;;;;;;23.00;15.30;;;;;;;;;;5013981;28;20619;-73
2021/01/16 16:10:57;;;;;;;34.93;21.60;;;;;;;;;;5016005;28;21007;-73
2021/01/16 16:14:03;;;;;;;27.17;17.83;;;;;;;;;;5015934;28;20658;-73
2021/01/16 16:17:07;;;;;;;24.33;14.63;;;;;;;;;;5015753;28;20567;-73
2021/01/16 16:20:12;;;;;;;30.13;18.40;;;;;;;;;;5015987;28;21097;-73
2021/01/16 16:23:17;;;;;;;31.00;17.10;;;;;;;;;;5015892;28;20548;-72
2021/01/16 16:26:21;;;;;;;54.93;29.10;;;;;;;;;;5015021;28;20555;-74
2021/01/16 16:29:25;;;;;;;32.33;18.07;;;;;;;;;;5014904;28;20556;-73
2021/01/16 16:32:30;;;;;;;21.37;13.70;;;;;;;;;;5015185;28;20655;-73
2021/01/16 16:35:35;;;;;;;19.97;12.53;;;;;;;;;;5015862;28;20887;-73
2021/01/16 16:38:41;;;;;;;23.10;13.50;;;;;;;;;;5015686;28;20568;-73
2021/01/16 16:41:45;;;;;;;26.10;15.77;;;;;;;;;;5015525;28;20627;-73
2021/01/16 16:44:50;;;;;;;26.13;14.83;;;;;;;;;;5015566;28;20615;-73
2021/01/16 16:47:54;;;;;;;20.97;13.20;;;;;;;;;;5003457;28;20552;-73
2021/01/16 16:50:59;;;;;;;23.77;14.20;;;;;;;;;;5015002;28;20651;-73
2021/01/16 16:54:03;;;;;;;21.33;13.70;;;;;;;;;;5014431;28;20615;-73
2021/01/16 16:57:07;;;;;;;23.67;14.13;;;;;;;;;;5014163;28;20548;-73
2021/01/16 17:00:13;;;;;;;25.13;14.77;;;;;;;;;;5015269;28;21190;-73
2021/01/16 17:03:17;;;;;;;40.50;23.03;;;;;;;;;;5015118;28;20540;-73
2021/01/16 17:06:21;;;;;;;23.03;13.83;;;;;;;;;;5015183;28;20556;-73
2021/01/16 17:09:25;;;;;;;32.50;19.70;;;;;;;;;;5014686;28;20627;-73
2021/01/16 17:12:30;;;;;;;33.10;19.53;;;;;;;;;;5013842;28;21232;-73
2021/01/16 17:15:35;;;;;;;39.40;19.40;;;;;;;;;;5014878;28;20552;-73
2021/01/16 17:18:38;;;;;;;43.40;21.40;;;;;;;;;;5002543;28;21083;-72
2021/01/16 17:21:43;;;;;;;30.40;17.93;;;;;;;;;;5014995;28;20639;-73
2021/01/16 17:24:47;;;;;;;37.70;19.00;;;;;;;;;;5014175;28;20900;-73
2021/01/16 17:27:51;;;;;;;63.87;32.20;;;;;;;;;;5014622;28;20552;-74
2021/01/16 17:30:56;;;;;;;32.13;20.20;;;;;;;;;;5002708;28;20630;-74
2021/01/16 17:34:00;;;;;;;28.40;17.63;;;;;;;;;;5015053;28;20595;-74
2021/01/16 17:37:06;;;;;;;38.07;20.27;;;;;;;;;;5015202;28;20544;-74
2021/01/16 17:40:10;;;;;;;29.17;15.93;;;;;;;;;;5014965;28;20946;-74
2021/01/16 17:43:15;;;;;;;31.07;17.17;;;;;;;;;;5014080;28;20960;-73
2021/01/16 17:46:19;;;;;;;44.03;21.47;;;;;;;;;;5013582;28;20564;-74
2021/01/16 17:49:23;;;;;;;39.97;20.37;;;;;;;;;;5013432;28;20552;-74
2021/01/16 17:52:27;;;;;;;22.80;12.63;;;;;;;;;;5024782;28;20627;-74
2021/01/16 17:55:32;;;;;;;25.23;15.03;;;;;;;;;;5002019;28;20564;-74
2021/01/16 17:58:36;;;;;;;35.23;18.13;;;;;;;;;;5013617;28;20583;-73
2021/01/16 18:01:43;;;;;;;27.70;15.27;;;;;;;;;;5013670;28;20635;-73
2021/01/16 18:04:47;;;;;;;31.10;16.30;;;;;;;;;;5013926;28;20544;-73
2021/01/16 18:07:53;;;;;;;31.87;18.87;;;;;;;;;;5013709;28;20699;-73
2021/01/16 18:10:57;;;;;;;35.93;22.17;;;;;;;;;;5013049;28;21239;-73
2021/01/16 18:14:01;;;;;;;26.07;15.63;;;;;;;;;;5013575;28;20595;-73
2021/01/16 18:17:06;;;;;;;18.33;12.57;;;;;;;;;;5013519;28;21115;-73